createdAt,value
2018-02-24T00:00:11.928Z,-6.90
2018-02-24T00:02:39.029Z,-7.00
2018-02-24T00:05:05.296Z,-7.00
2018-02-24T00:07:31.631Z,-7.00
2018-02-24T00:09:57.975Z,-7.00
2018-02-24T00:12:24.265Z,-7.10
2018-02-24T00:14:51.356Z,-7.30
2018-02-24T00:17:17.679Z,-7.30
2018-02-24T00:19:44.088Z,-7.20
2018-02-24T00:22:10.429Z,-7.20
2018-02-24T00:24:36.718Z,-7.20
2018-02-24T00:27:03.104Z,-7.20
2018-02-24T00:29:29.415Z,-7.30
2018-02-24T00:34:43.902Z,-7.30
2018-02-24T00:37:10.223Z,-7.30
2018-02-24T00:39:37.269Z,-7.40
2018-02-24T00:42:03.661Z,-7.30
2018-02-24T00:44:29.968Z,-7.30
2018-02-24T00:46:57.002Z,-7.30
2018-02-24T00:49:23.340Z,-7.30
2018-02-24T00:51:49.654Z,-7.20
2018-02-24T00:54:16.019Z,-6.80
2018-02-24T00:56:42.345Z,-6.80
2018-02-24T00:59:08.689Z,-6.90
2018-02-24T01:01:35.761Z,-7.00
2018-02-24T01:04:02.845Z,-7.00
2018-02-24T01:06:29.230Z,-7.10
2018-02-24T01:08:55.560Z,-7.10
2018-02-24T01:11:21.836Z,-7.10
2018-02-24T01:13:48.912Z,-7.30
2018-02-24T01:16:15.377Z,-7.30
2018-02-24T01:18:41.734Z,-7.40
2018-02-24T01:21:08.071Z,-7.50
2018-02-24T01:23:34.363Z,-7.60
2018-02-24T01:26:00.664Z,-7.70
2018-02-24T01:28:27.407Z,-7.70
2018-02-24T01:30:53.768Z,-7.70
2018-02-24T01:33:20.180Z,-7.80
2018-02-24T01:35:46.505Z,-7.90
2018-02-24T01:38:13.570Z,-7.90
2018-02-24T01:40:40.565Z,-8.00
2018-02-24T01:43:06.855Z,-8.00
2018-02-24T01:45:33.251Z,-8.00
2018-02-24T01:47:59.585Z,-8.10
2018-02-24T01:50:41.865Z,-8.10
2018-02-24T01:53:08.869Z,-8.00
2018-02-24T01:55:35.120Z,-8.10
2018-02-24T01:58:01.554Z,-8.10
2018-02-24T02:00:27.873Z,-8.10
2018-02-24T02:02:54.957Z,-8.20
2018-02-24T02:05:21.241Z,-8.20
2018-02-24T02:07:48.348Z,-8.20
2018-02-24T02:10:14.621Z,-8.20
2018-02-24T02:12:40.935Z,-8.20
2018-02-24T02:15:07.212Z,-8.30
2018-02-24T02:17:33.497Z,-8.30
2018-02-24T02:20:00.541Z,-8.30
2018-02-24T02:22:26.853Z,-8.30
2018-02-24T02:24:53.891Z,-8.30
2018-02-24T02:27:20.195Z,-8.30
2018-02-24T02:29:46.476Z,-8.30
2018-02-24T02:32:12.795Z,-8.30
2018-02-24T02:34:39.869Z,-8.30
2018-02-24T02:37:06.163Z,-8.30
2018-02-24T02:39:32.460Z,-8.20
2018-02-24T02:41:58.735Z,-8.20
2018-02-24T02:44:25.077Z,-8.20
2018-02-24T02:46:51.424Z,-8.20
2018-02-24T02:49:17.723Z,-8.10
2018-02-24T02:51:44.857Z,-8.20
2018-02-24T02:54:11.210Z,-8.20
2018-02-24T02:56:37.512Z,-8.20
2018-02-24T02:59:03.815Z,-8.30
2018-02-24T03:01:30.147Z,-8.30
2018-02-24T03:03:56.405Z,-8.30
2018-02-24T03:06:22.765Z,-8.50
2018-02-24T03:08:49.099Z,-8.50
2018-02-24T03:11:16.181Z,-8.50
2018-02-24T03:13:42.555Z,-8.50
2018-02-24T03:16:08.923Z,-8.60
2018-02-24T03:18:35.228Z,-8.60
2018-02-24T03:21:01.561Z,-8.70
2018-02-24T03:23:28.692Z,-8.80
2018-02-24T03:25:55.726Z,-8.80
2018-02-24T03:28:22.109Z,-8.90
2018-02-24T03:30:48.451Z,-8.80
2018-02-24T03:33:14.747Z,-8.80
2018-02-24T03:35:41.107Z,-8.80
2018-02-24T03:38:07.541Z,-8.80
2018-02-24T03:40:33.873Z,-8.80
2018-02-24T03:43:00.233Z,-8.80
2018-02-24T03:45:26.570Z,-8.80
2018-02-24T03:47:52.865Z,-8.80
2018-02-24T03:50:19.239Z,-8.80
2018-02-24T03:52:45.534Z,-8.80
2018-02-24T03:55:11.872Z,-8.80
2018-02-24T03:57:38.928Z,-8.70
2018-02-24T04:00:05.333Z,-8.70
2018-02-24T04:02:31.674Z,-8.80
2018-02-24T04:04:58.072Z,-8.80
2018-02-24T04:07:25.117Z,-8.80
2018-02-24T04:09:52.270Z,-8.90
2018-02-24T04:12:18.551Z,-8.90
2018-02-24T04:14:44.851Z,-8.90
2018-02-24T04:17:11.248Z,-8.90
2018-02-24T04:19:37.583Z,-8.90
2018-02-24T04:22:03.918Z,-8.80
2018-02-24T04:24:30.235Z,-8.80
2018-02-24T04:26:57.293Z,-8.90
2018-02-24T04:29:23.596Z,-8.90
2018-02-24T04:31:49.892Z,-9.00
2018-02-24T04:34:16.224Z,-9.00
2018-02-24T04:36:43.368Z,-8.90
2018-02-24T04:39:09.645Z,-8.90
2018-02-24T04:41:35.974Z,-9.00
2018-02-24T04:44:02.237Z,-9.10
2018-02-24T04:46:28.574Z,-9.10
2018-02-24T04:48:54.974Z,-9.10
2018-02-24T04:51:21.337Z,-9.10
2018-02-24T04:53:48.400Z,-9.10
2018-02-24T04:56:15.444Z,-9.10
2018-02-24T04:58:41.763Z,-9.10
2018-02-24T05:01:08.056Z,-9.10
2018-02-24T05:03:35.112Z,-9.10
2018-02-24T05:06:03.279Z,-9.00
2018-02-24T05:08:29.614Z,-9.10
2018-02-24T05:10:55.955Z,-9.00
2018-02-24T05:13:22.233Z,-9.00
2018-02-24T05:15:49.372Z,-9.10
2018-02-24T05:18:15.632Z,-9.10
2018-02-24T05:20:42.838Z,-9.10
2018-02-24T05:23:09.167Z,-9.20
2018-02-24T05:25:35.486Z,-9.20
2018-02-24T05:28:02.561Z,-9.20
2018-02-24T05:30:28.919Z,-9.20
2018-02-24T05:32:55.280Z,-9.20
2018-02-24T05:35:21.568Z,-9.20
2018-02-24T05:37:48.683Z,-9.20
2018-02-24T05:40:15.033Z,-9.20
2018-02-24T05:42:41.301Z,-9.20
2018-02-24T05:45:07.681Z,-9.20
2018-02-24T05:47:33.881Z,-9.20
2018-02-24T05:50:00.055Z,-9.10
2018-02-24T05:52:26.237Z,-9.10
2018-02-24T05:54:52.444Z,-9.30
2018-02-24T05:57:18.667Z,-9.40
2018-02-24T05:59:45.594Z,-9.50
2018-02-24T06:02:19.900Z,-9.50
2018-02-24T06:04:46.818Z,-9.60
2018-02-24T06:07:16.466Z,-9.60
2018-02-24T06:09:42.608Z,-9.50
2018-02-24T06:12:08.777Z,-9.50
2018-02-24T06:14:52.316Z,-9.60
2018-02-24T06:17:20.501Z,-9.60
2018-02-24T06:19:47.426Z,-9.40
2018-02-24T06:22:13.704Z,-9.40
2018-02-24T06:24:39.845Z,-9.40
2018-02-24T06:27:06.012Z,-9.40
2018-02-24T06:29:32.160Z,-9.30
2018-02-24T06:31:58.332Z,-9.10
2018-02-24T06:34:24.691Z,-9.10
2018-02-24T06:36:52.221Z,-9.10
2018-02-24T06:39:18.425Z,-9.10
2018-02-24T06:41:44.573Z,-9.00
2018-02-24T06:44:10.938Z,-8.90
2018-02-24T06:46:37.104Z,-8.70
2018-02-24T06:49:04.293Z,-8.70
2018-02-24T06:51:31.293Z,-8.60
2018-02-24T06:53:57.474Z,-8.60
2018-02-24T06:56:23.673Z,-8.40
2018-02-24T06:58:49.992Z,-7.80
2018-02-24T07:01:16.136Z,-7.40
2018-02-24T07:03:42.343Z,-7.30
2018-02-24T07:06:08.509Z,-7.20
2018-02-24T07:08:34.777Z,-7.10
2018-02-24T07:11:00.912Z,-6.70
2018-02-24T07:13:27.067Z,-6.50
2018-02-24T07:15:53.249Z,-6.60
2018-02-24T07:18:20.162Z,-6.70
2018-02-24T07:20:46.348Z,-6.70
2018-02-24T07:23:12.545Z,-6.70
2018-02-24T07:25:38.629Z,-6.70
2018-02-24T07:28:05.570Z,-6.70
2018-02-24T07:30:31.877Z,-6.70
2018-02-24T07:32:58.092Z,-6.70
2018-02-24T07:35:24.247Z,-6.40
2018-02-24T07:37:50.416Z,-5.90
2018-02-24T07:40:20.207Z,-5.70
2018-02-24T07:42:46.341Z,-5.20
2018-02-24T07:45:12.552Z,-4.90
2018-02-24T07:47:39.526Z,-4.00
2018-02-24T07:50:05.686Z,-4.00
2018-02-24T07:52:49.750Z,-3.60
2018-02-24T07:55:15.895Z,-3.30
2018-02-24T07:57:42.807Z,-2.80
2018-02-24T08:00:09.007Z,-2.80
2018-02-24T08:02:35.149Z,-2.60
2018-02-24T08:05:01.321Z,-2.60
2018-02-24T08:07:28.183Z,-2.40
2018-02-24T08:09:55.170Z,-2.60
2018-02-24T08:12:39.069Z,-2.60
2018-02-24T08:15:05.253Z,-2.40
2018-02-24T08:17:31.502Z,-2.10
2018-02-24T08:19:57.729Z,-2.10
2018-02-24T08:22:24.008Z,-2.00
2018-02-24T08:24:50.143Z,-2.20
2018-02-24T08:27:18.393Z,-2.20
2018-02-24T08:29:45.286Z,-1.80
2018-02-24T08:32:11.483Z,-1.80
2018-02-24T08:34:38.342Z,-1.70
2018-02-24T08:37:04.502Z,-1.70
2018-02-24T08:39:30.652Z,-1.90
2018-02-24T08:41:59.104Z,-2.10
2018-02-24T08:44:26.101Z,-2.30
2018-02-24T08:46:53.041Z,-2.30
2018-02-24T08:49:19.229Z,-2.30
2018-02-24T08:51:45.374Z,-2.30
2018-02-24T08:54:11.564Z,-2.30
2018-02-24T08:56:37.939Z,-2.40
2018-02-24T08:59:04.152Z,-2.30
2018-02-24T09:01:30.320Z,-2.30
2018-02-24T09:03:57.241Z,-2.00
2018-02-24T09:06:23.405Z,-2.00
2018-02-24T09:08:49.578Z,-1.80
2018-02-24T09:11:15.793Z,-2.00
2018-02-24T09:13:42.032Z,-1.80
2018-02-24T09:16:08.219Z,-1.60
2018-02-24T09:18:35.129Z,-1.50
2018-02-24T09:21:01.364Z,-1.50
2018-02-24T09:23:27.505Z,-1.60
2018-02-24T09:25:53.870Z,-1.40
2018-02-24T09:28:20.038Z,-1.30
2018-02-24T09:30:46.341Z,-1.20
2018-02-24T09:33:17.668Z,-1.20
2018-02-24T09:35:43.829Z,-1.00
2018-02-24T09:38:10.217Z,-1.00
2018-02-24T09:40:37.295Z,-0.70
2018-02-24T09:43:03.660Z,-0.70
2018-02-24T09:45:30.008Z,-0.60
2018-02-24T09:47:56.393Z,-0.60
2018-02-24T09:50:22.784Z,-0.50
2018-02-24T09:52:49.063Z,-0.40
2018-02-24T09:55:16.076Z,-0.10
2018-02-24T09:57:42.364Z,-0.10
2018-02-24T10:00:08.636Z,-0.20
2018-02-24T10:02:35.619Z,0.20
2018-02-24T10:05:01.911Z,0.20
2018-02-24T10:07:28.152Z,0.30
2018-02-24T10:09:54.458Z,0.50
2018-02-24T10:12:20.782Z,0.90
2018-02-24T10:14:47.042Z,0.80
2018-02-24T10:17:13.375Z,0.80
2018-02-24T10:19:40.399Z,1.10
2018-02-24T10:22:06.672Z,1.10
2018-02-24T10:24:32.991Z,1.10
2018-02-24T10:26:59.984Z,1.60
2018-02-24T10:29:26.248Z,1.50
2018-02-24T10:31:52.582Z,2.20
2018-02-24T10:34:18.824Z,2.20
2018-02-24T10:36:45.054Z,2.30
2018-02-24T10:39:11.311Z,2.40
2018-02-24T10:41:37.573Z,2.40
2018-02-24T10:44:07.913Z,2.50
2018-02-24T10:46:34.174Z,2.60
2018-02-24T10:49:13.659Z,2.80
2018-02-24T10:51:39.925Z,2.90
2018-02-24T10:54:06.248Z,3.10
2018-02-24T10:56:32.548Z,2.70
2018-02-24T10:58:58.812Z,2.60
2018-02-24T11:01:25.177Z,2.50
2018-02-24T11:03:51.455Z,2.30
2018-02-24T11:06:17.707Z,1.80
2018-02-24T11:08:43.934Z,1.50
2018-02-24T11:11:10.289Z,0.90
2018-02-24T11:13:36.560Z,0.80
2018-02-24T11:16:10.596Z,0.80
2018-02-24T11:18:36.888Z,0.70
2018-02-24T11:21:03.150Z,0.80
2018-02-24T11:23:29.428Z,0.90
2018-02-24T11:25:56.751Z,0.70
2018-02-24T11:28:23.073Z,0.30
2018-02-24T11:30:49.358Z,0.10
2018-02-24T11:33:16.359Z,0.10
2018-02-24T11:35:43.671Z,0.10
2018-02-24T11:38:21.224Z,0.00
2018-02-24T11:40:47.488Z,0.00
2018-02-24T11:43:13.790Z,0.00
2018-02-24T11:45:52.169Z,0.20
2018-02-24T11:48:18.509Z,0.10
2018-02-24T11:50:44.771Z,0.00
2018-02-24T11:53:11.007Z,0.30
2018-02-24T11:55:37.321Z,0.60
2018-02-24T11:58:03.574Z,1.10
2018-02-24T12:00:30.570Z,1.70
2018-02-24T12:02:57.614Z,1.70
2018-02-24T12:05:24.674Z,1.50
2018-02-24T12:07:51.016Z,1.50
2018-02-24T12:10:17.370Z,1.30
2018-02-24T12:12:43.649Z,0.70
2018-02-24T12:15:09.903Z,0.60
2018-02-24T12:17:37.257Z,0.60
2018-02-24T12:20:03.589Z,0.10
2018-02-24T12:22:29.847Z,0.20
2018-02-24T12:24:56.233Z,0.60
2018-02-24T12:27:23.546Z,0.90
2018-02-24T12:29:55.836Z,1.40
2018-02-24T12:32:22.276Z,1.80
2018-02-24T12:34:48.562Z,1.80
2018-02-24T12:37:15.099Z,2.40
2018-02-24T12:39:41.502Z,2.20
2018-02-24T12:42:07.739Z,1.60
2018-02-24T12:44:34.784Z,0.90
2018-02-24T12:47:01.761Z,0.80
2018-02-24T12:49:28.061Z,0.80
2018-02-24T12:51:54.480Z,0.80
2018-02-24T12:54:23.321Z,1.10
2018-02-24T12:56:49.681Z,1.40
2018-02-24T12:59:16.683Z,2.20
2018-02-24T13:01:42.960Z,2.20
2018-02-24T13:04:09.227Z,2.20
2018-02-24T13:06:35.479Z,1.90
2018-02-24T13:09:01.739Z,1.40
2018-02-24T13:11:27.979Z,1.40
2018-02-24T13:13:54.521Z,1.40
2018-02-24T13:16:21.668Z,1.80
2018-02-24T13:18:48.031Z,1.70
2018-02-24T13:21:14.340Z,1.70
2018-02-24T13:23:40.683Z,1.80
2018-02-24T13:26:07.730Z,2.10
2018-02-24T13:28:34.045Z,2.10
2018-02-24T13:31:00.392Z,2.00
2018-02-24T13:33:26.665Z,2.20
2018-02-24T13:35:53.819Z,2.40
2018-02-24T13:38:22.157Z,2.40
2018-02-24T13:40:50.538Z,2.60
2018-02-24T13:43:16.832Z,2.70
2018-02-24T13:45:54.457Z,3.00
2018-02-24T13:48:21.540Z,2.60
2018-02-24T13:50:47.818Z,2.60
2018-02-24T13:53:14.934Z,2.40
2018-02-24T13:55:41.969Z,1.90
2018-02-24T13:58:18.264Z,1.90
2018-02-24T14:00:45.321Z,2.00
2018-02-24T14:03:12.342Z,1.90
2018-02-24T14:05:38.581Z,1.80
2018-02-24T14:08:04.836Z,1.90
2018-02-24T14:10:31.132Z,2.10
2018-02-24T14:12:57.413Z,2.50
2018-02-24T14:15:23.801Z,2.30
2018-02-24T14:17:51.231Z,2.60
2018-02-24T14:20:17.465Z,2.70
2018-02-24T14:22:43.804Z,2.80
2018-02-24T14:25:10.050Z,2.70
2018-02-24T14:27:36.263Z,2.50
2018-02-24T14:30:02.610Z,2.50
2018-02-24T14:32:28.848Z,2.70
2018-02-24T14:34:55.166Z,3.10
2018-02-24T14:37:22.226Z,4.00
2018-02-24T14:39:55.754Z,3.60
2018-02-24T14:42:22.293Z,3.60
2018-02-24T14:44:48.529Z,3.20
2018-02-24T14:47:15.594Z,2.20
2018-02-24T14:49:42.622Z,2.10
2018-02-24T14:52:19.620Z,2.00
2018-02-24T14:54:45.840Z,2.30
2018-02-24T14:57:12.291Z,2.30
2018-02-24T14:59:38.509Z,2.30
2018-02-24T15:02:04.711Z,2.30
2018-02-24T15:04:32.870Z,2.60
2018-02-24T15:06:59.215Z,2.50
2018-02-24T15:09:25.499Z,2.20
2018-02-24T15:11:53.263Z,2.20
2018-02-24T15:14:19.588Z,2.20
2018-02-24T15:16:45.893Z,1.90
2018-02-24T15:19:19.589Z,1.80
2018-02-24T15:21:45.988Z,1.90
2018-02-24T15:24:12.257Z,2.10
2018-02-24T15:26:43.020Z,1.80
2018-02-24T15:29:13.472Z,1.80
2018-02-24T15:31:39.746Z,1.70
2018-02-24T15:34:06.022Z,1.70
2018-02-24T15:36:32.370Z,1.70
2018-02-24T15:38:59.418Z,1.60
2018-02-24T15:41:27.671Z,1.60
2018-02-24T15:43:54.148Z,1.60
2018-02-24T15:46:21.114Z,1.50
2018-02-24T15:48:48.200Z,1.30
2018-02-24T15:51:14.420Z,1.30
2018-02-24T15:53:41.941Z,1.20
2018-02-24T15:56:08.282Z,1.00
2018-02-24T15:58:34.565Z,0.90
2018-02-24T16:01:00.842Z,0.80
2018-02-24T16:03:27.168Z,0.60
2018-02-24T16:05:54.277Z,0.40
2018-02-24T16:08:20.589Z,0.40
2018-02-24T16:10:46.833Z,0.50
2018-02-24T16:13:13.133Z,0.60
2018-02-24T16:15:39.540Z,0.90
2018-02-24T16:18:07.953Z,0.60
2018-02-24T16:20:34.411Z,0.40
2018-02-24T16:23:01.470Z,-0.20
2018-02-24T16:25:27.804Z,-0.20
2018-02-24T16:27:54.248Z,-0.30
2018-02-24T16:30:20.591Z,-0.40
2018-02-24T16:32:46.887Z,-0.50
2018-02-24T16:35:13.351Z,-0.60
2018-02-24T16:37:39.602Z,-0.50
2018-02-24T16:40:17.446Z,-0.60
2018-02-24T16:42:43.835Z,-0.80
2018-02-24T16:45:12.282Z,-1.10
2018-02-24T16:47:38.456Z,-1.00
2018-02-24T16:50:04.725Z,-1.00
2018-02-24T16:52:31.130Z,-1.00
2018-02-24T16:55:00.146Z,-1.10
2018-02-24T16:57:26.494Z,-1.10
2018-02-24T16:59:54.759Z,-1.10
2018-02-24T17:02:21.895Z,-1.20
2018-02-24T17:04:48.252Z,-1.20
2018-02-24T17:07:14.526Z,-1.20
2018-02-24T17:09:41.502Z,-1.30
2018-02-24T17:12:07.861Z,-1.30
2018-02-24T17:14:34.101Z,-1.50
2018-02-24T17:17:00.431Z,-1.60
2018-02-24T17:19:26.715Z,-1.70
2018-02-24T17:21:53.322Z,-1.70
2018-02-24T17:24:19.686Z,-1.40
2018-02-24T17:26:45.885Z,-1.10
2018-02-24T17:29:12.828Z,-1.50
2018-02-24T17:31:39.825Z,-1.70
2018-02-24T17:34:10.377Z,-1.70
2018-02-24T17:36:36.640Z,-1.40
2018-02-24T17:39:04.922Z,-1.50
2018-02-24T17:41:31.239Z,-1.30
2018-02-24T17:43:57.575Z,-1.40
2018-02-24T17:46:24.203Z,-1.50
2018-02-24T17:48:50.441Z,-1.60
2018-02-24T17:51:17.418Z,-1.60
2018-02-24T17:53:43.734Z,-1.60
2018-02-24T17:56:09.990Z,-1.80
2018-02-24T17:58:37.106Z,-1.80
2018-02-24T18:01:03.494Z,-1.80
2018-02-24T18:03:30.523Z,-1.60
2018-02-24T18:05:56.909Z,-1.70
2018-02-24T18:08:23.474Z,-1.70
2018-02-24T18:10:49.801Z,-1.90
2018-02-24T18:13:16.121Z,-1.90
2018-02-24T18:15:42.397Z,-2.00
2018-02-24T18:18:08.648Z,-2.10
2018-02-24T18:20:34.880Z,-2.30
2018-02-24T18:23:02.301Z,-2.20
2018-02-24T18:25:28.583Z,-2.10
2018-02-24T18:27:55.652Z,-1.90
2018-02-24T18:30:22.040Z,-1.90
2018-02-24T18:32:55.418Z,-1.80
2018-02-24T18:35:23.276Z,-1.80
2018-02-24T18:37:49.668Z,-1.80
2018-02-24T18:40:16.064Z,-2.00
2018-02-24T18:42:52.879Z,-1.90
2018-02-24T18:45:19.220Z,-2.00
2018-02-24T18:47:47.601Z,-2.30
2018-02-24T18:50:13.872Z,-2.50
2018-02-24T18:52:40.158Z,-2.70
2018-02-24T18:55:07.169Z,-2.90
2018-02-24T18:57:33.520Z,-2.90
2018-02-24T18:59:59.766Z,-2.90
2018-02-24T19:02:26.124Z,-3.00
2018-02-24T19:04:53.141Z,-3.00
2018-02-24T19:07:20.194Z,-3.20
2018-02-24T19:09:46.460Z,-3.20
2018-02-24T19:12:12.881Z,-3.30
2018-02-24T19:14:39.423Z,-3.10
2018-02-24T19:17:13.122Z,-3.10
2018-02-24T19:19:40.228Z,-3.00
2018-02-24T19:22:06.566Z,-3.10
2018-02-24T19:24:32.795Z,-3.00
2018-02-24T19:27:00.146Z,-3.10
2018-02-24T19:29:26.668Z,-3.30
2018-02-24T19:31:54.149Z,-3.40
2018-02-24T19:34:20.498Z,-3.50
2018-02-24T19:36:53.489Z,-3.40
2018-02-24T19:39:19.893Z,-3.40
2018-02-24T19:41:46.223Z,-3.50
2018-02-24T19:44:12.498Z,-3.60
2018-02-24T19:46:38.718Z,-3.60
2018-02-24T19:49:04.971Z,-3.50
2018-02-24T19:51:31.371Z,-3.60
2018-02-24T19:53:57.726Z,-3.80
2018-02-24T19:56:24.182Z,-3.90
2018-02-24T19:58:54.676Z,-3.90
2018-02-24T20:01:21.070Z,-3.90
2018-02-24T20:03:47.360Z,-4.00
2018-02-24T20:06:14.349Z,-4.10
2018-02-24T20:08:40.630Z,-4.10
2018-02-24T20:11:07.417Z,-4.00
2018-02-24T20:13:33.821Z,-4.00
2018-02-24T20:16:00.091Z,-4.10
2018-02-24T20:18:26.936Z,-3.90
2018-02-24T20:20:54.835Z,-3.80
2018-02-24T20:23:23.602Z,-3.80
2018-02-24T20:25:51.145Z,-3.60
2018-02-24T20:28:19.638Z,-3.80
2018-02-24T20:30:45.876Z,-4.00
2018-02-24T20:33:14.431Z,-4.20
2018-02-24T20:35:41.504Z,-4.30
2018-02-24T20:38:08.564Z,-4.10
2018-02-24T20:40:35.617Z,-4.30
2018-02-24T20:43:02.067Z,-4.30
2018-02-24T20:45:28.442Z,-4.30
2018-02-24T20:47:55.018Z,-4.10
2018-02-24T20:50:21.369Z,-4.00
2018-02-24T20:52:47.660Z,-4.00
2018-02-24T20:55:21.156Z,-3.80
2018-02-24T20:57:55.907Z,-4.10
2018-02-24T21:00:24.837Z,-4.10
2018-02-24T21:02:51.066Z,-4.20
2018-02-24T21:05:17.333Z,-4.40
2018-02-24T21:07:54.362Z,-4.50
2018-02-24T21:10:20.610Z,-4.40
2018-02-24T21:12:46.939Z,-4.50
2018-02-24T21:15:16.227Z,-4.80
2018-02-24T21:17:42.491Z,-4.80
2018-02-24T21:20:09.828Z,-5.00
2018-02-24T21:22:36.150Z,-5.00
2018-02-24T21:25:02.453Z,-5.00
2018-02-24T21:27:36.415Z,-5.00
2018-02-24T21:30:02.707Z,-4.80
2018-02-24T21:32:29.002Z,-4.80
2018-02-24T21:34:56.159Z,-4.70
2018-02-24T21:37:24.304Z,-4.70
2018-02-24T21:39:50.666Z,-4.70
2018-02-24T21:42:17.755Z,-5.00
2018-02-24T21:44:58.594Z,-5.00
2018-02-24T21:47:25.266Z,-4.90
2018-02-24T21:49:51.553Z,-5.00
2018-02-24T21:52:17.871Z,-5.10
2018-02-24T21:54:44.157Z,-5.20
2018-02-24T21:57:10.385Z,-5.10
2018-02-24T21:59:36.650Z,-5.10
2018-02-24T22:02:02.926Z,-5.20
2018-02-24T22:04:29.283Z,-5.20
2018-02-24T22:06:55.674Z,-5.10
2018-02-24T22:09:21.972Z,-5.20
2018-02-24T22:11:59.574Z,-5.10
2018-02-24T22:14:25.869Z,-5.20
2018-02-24T22:16:52.160Z,-5.30
2018-02-24T22:19:23.540Z,-5.10
2018-02-24T22:21:49.796Z,-5.20
2018-02-24T22:24:16.011Z,-5.40
2018-02-24T22:26:42.263Z,-5.50
2018-02-24T22:29:08.700Z,-5.60
2018-02-24T22:31:35.040Z,-5.70
2018-02-24T22:34:01.346Z,-5.60
2018-02-24T22:36:27.623Z,-5.60
2018-02-24T22:38:53.916Z,-5.80
2018-02-24T22:41:20.181Z,-6.20
2018-02-24T22:43:47.179Z,-6.50
2018-02-24T22:46:13.400Z,-6.60
2018-02-24T22:48:47.340Z,-6.70
2018-02-24T22:51:13.532Z,-6.70
2018-02-24T22:53:40.498Z,-7.00
2018-02-24T22:56:07.523Z,-7.00
2018-02-24T22:58:33.750Z,-7.00
2018-02-24T23:01:00.181Z,-7.10
2018-02-24T23:03:26.645Z,-7.00
2018-02-24T23:05:52.933Z,-7.00
2018-02-24T23:08:19.289Z,-7.00
2018-02-24T23:10:46.255Z,-7.10
2018-02-24T23:13:22.838Z,-7.10
2018-02-24T23:15:49.233Z,-7.10
2018-02-24T23:18:16.585Z,-7.10
2018-02-24T23:20:42.916Z,-7.10
2018-02-24T23:23:16.185Z,-7.10
2018-02-24T23:25:43.147Z,-7.20
2018-02-24T23:28:10.129Z,-7.30
2018-02-24T23:30:36.429Z,-7.30
2018-02-24T23:33:02.778Z,-7.30
2018-02-24T23:35:29.088Z,-7.30
2018-02-24T23:37:55.513Z,-7.30
2018-02-24T23:40:21.808Z,-7.30
2018-02-24T23:42:49.117Z,-7.40
2018-02-24T23:45:15.386Z,-7.40
2018-02-24T23:47:41.625Z,-7.40
2018-02-24T23:50:07.961Z,-7.50
2018-02-24T23:52:40.571Z,-7.50
2018-02-24T23:55:06.835Z,-7.50
2018-02-24T23:57:46.760Z,-7.50
